Time;durP1;ratioP1;P1;durP2;ratioP2;P2;SDS_P1;SDS_P2;PMS_P1;PMS_P2;Temp;Humidity;BMP_temperature;BMP_pressure;BME280_temperature;BME280_humidity;BME280_pressure;Samples;Min_cycle;Max_cycle;Signal;HPM_P1;HPM_P2
2024/01/27 00:03:35;;;;;;;2.30;1.00;;;;;;;7.25;72.50;99171.88;231741;198;137436;-61
2024/01/27 00:08:39;;;;;;;3.90;1.00;;;;;;;7.12;70.91;99193.45;231573;197;138761;-60
2024/01/27 00:13:42;;;;;;;3.20;1.00;;;;;;;7.00;69.97;99209.55;231684;198;154488;-61
2024/01/27 00:18:45;;;;;;;2.70;1.00;;;;;;;6.98;69.25;99223.05;231870;205;137680;-61
2024/01/27 00:23:49;;;;;;;2.90;0.90;;;;;;;6.95;67.75;99256.70;231844;201;138636;-61
2024/01/27 00:28:52;;;;;;;3.00;0.90;;;;;;;6.85;67.65;99277.92;231692;205;153177;-61
2024/01/27 00:33:55;;;;;;;4.60;1.10;;;;;;;6.75;67.37;99297.39;231839;197;138189;-61
2024/01/27 00:38:58;;;;;;;3.30;1.10;;;;;;;6.62;66.96;99296.88;231624;199;138273;-61
2024/01/27 00:44:02;;;;;;;3.80;0.90;;;;;;;6.56;66.53;99293.95;231810;198;153282;-61
2024/01/27 00:49:05;;;;;;;4.30;1.00;;;;;;;6.57;65.38;99301.85;231821;201;138369;-61
2024/01/27 00:54:09;;;;;;;6.90;1.60;;;;;;;6.59;63.84;99317.11;231875;198;138204;-61
2024/01/27 00:59:12;;;;;;;4.50;1.40;;;;;;;6.57;63.31;99327.39;231582;203;153337;-60
2024/01/27 01:04:15;;;;;;;5.10;1.10;;;;;;;6.57;63.92;99342.40;231641;198;138330;-61
2024/01/27 01:09:18;;;;;;;5.60;1.40;;;;;;;6.58;64.30;99348.89;231641;198;138405;-62
2024/01/27 01:14:21;;;;;;;5.20;1.30;;;;;;;6.50;64.61;99351.48;231666;198;155191;-61
2024/01/27 01:19:27;;;;;;;7.10;1.50;;;;;;;6.41;64.86;99355.04;231695;198;138188;-61
2024/01/27 01:24:30;;;;;;;3.70;1.10;;;;;;;6.40;64.89;99366.86;231800;198;139551;-61
2024/01/27 01:29:34;;;;;;;6.40;1.70;;;;;;;6.34;64.24;99378.05;231674;203;153298;-61
2024/01/27 01:34:38;;;;;;;5.50;1.40;;;;;;;6.32;64.35;99381.81;231612;198;138424;-62
2024/01/27 01:39:41;;;;;;;8.40;2.20;;;;;;;6.29;64.35;99391.27;231756;205;137919;-61
2024/01/27 01:44:44;;;;;;;5.90;2.00;;;;;;;6.32;64.32;99404.02;231617;198;153071;-61
2024/01/27 01:49:48;;;;;;;8.10;2.40;;;;;;;6.33;64.40;99411.89;231719;198;138073;-61
2024/01/27 01:54:51;;;;;;;11.50;2.30;;;;;;;6.30;64.36;99410.08;231735;199;138842;-61
2024/01/27 01:59:55;;;;;;;7.60;2.10;;;;;;;6.27;64.23;99414.05;231835;198;153195;-61
2024/01/27 02:04:58;;;;;;;5.40;1.50;;;;;;;6.27;63.80;99416.55;231848;205;138682;-63
2024/01/27 02:10:02;;;;;;;7.10;1.80;;;;;;;6.27;62.74;99422.73;231734;201;138795;-60
2024/01/27 02:15:10;;;;;;;5.10;1.60;;;;;;;6.24;62.89;99426.52;231757;201;153168;-60
2024/01/27 02:20:13;;;;;;;5.80;1.60;;;;;;;6.14;63.26;99423.74;231878;198;138062;-59
2024/01/27 02:25:16;;;;;;;4.50;1.80;;;;;;;6.12;63.85;99417.84;231888;205;138360;-59
2024/01/27 02:30:19;;;;;;;8.50;2.30;;;;;;;6.09;63.55;99426.91;232059;198;153393;-59
2024/01/27 02:35:23;;;;;;;8.40;2.50;;;;;;;6.08;63.41;99428.39;231850;197;138952;-60
2024/01/27 02:40:26;;;;;;;9.70;2.50;;;;;;;6.08;63.18;99431.55;231881;201;138695;-60
2024/01/27 02:45:29;;;;;;;7.90;2.40;;;;;;;6.02;62.40;99434.59;231733;198;153226;-60
2024/01/27 02:50:33;;;;;;;9.00;2.10;;;;;;;6.02;61.60;99436.17;231863;202;137526;-60
2024/01/27 02:55:36;;;;;;;6.40;1.70;;;;;;;6.06;60.64;99439.17;231867;198;137050;-59
2024/01/27 03:00:39;;;;;;;7.00;1.60;;;;;;;6.10;60.79;99443.41;231862;205;154568;-59
2024/01/27 03:05:43;;;;;;;6.80;2.00;;;;;;;6.12;61.31;99443.70;231957;198;137593;-60
2024/01/27 03:10:46;;;;;;;5.60;1.70;;;;;;;6.12;60.87;99448.29;231843;199;138240;-59
2024/01/27 03:15:50;;;;;;;5.00;1.50;;;;;;;6.08;60.00;99457.76;231743;198;154575;-59
2024/01/27 03:20:53;;;;;;;10.00;1.70;;;;;;;6.05;58.74;99465.82;231758;205;138599;-59
2024/01/27 03:25:56;;;;;;;11.10;2.10;;;;;;;5.99;58.12;99470.27;231829;201;137579;-60
2024/01/27 03:30:59;;;;;;;9.60;2.10;;;;;;;6.03;58.13;99474.52;231868;201;153888;-60
2024/01/27 03:36:03;;;;;;;8.90;2.00;;;;;;;6.07;58.20;99477.20;231972;198;138065;-60
2024/01/27 03:41:06;;;;;;;9.00;1.90;;;;;;;6.09;58.19;99479.22;231852;201;137230;-60
2024/01/27 03:46:09;;;;;;;6.20;1.80;;;;;;;6.05;58.34;99487.86;231724;205;153474;-60
2024/01/27 03:51:13;;;;;;;8.70;1.60;;;;;;;6.01;58.73;99498.22;231762;198;137091;-59
2024/01/27 03:56:16;;;;;;;8.40;2.40;;;;;;;6.01;59.22;99503.33;231843;202;137327;-61
2024/01/27 04:01:19;;;;;;;9.20;1.70;;;;;;;5.96;59.66;99503.14;231936;198;153327;-60
2024/01/27 04:06:22;;;;;;;7.40;1.60;;;;;;;6.00;59.34;99505.80;231963;197;138745;-62
2024/01/27 04:11:26;;;;;;;5.20;1.50;;;;;;;6.05;59.00;99510.74;231855;197;139033;-62
2024/01/27 04:16:29;;;;;;;6.60;1.80;;;;;;;6.08;58.36;99529.11;231782;198;156071;-62
2024/01/27 04:21:32;;;;;;;9.50;1.70;;;;;;;6.09;58.28;99542.31;231934;198;138217;-62
2024/01/27 04:26:35;;;;;;;7.50;2.10;;;;;;;6.11;58.32;99530.59;231878;197;137312;-61
2024/01/27 04:31:40;;;;;;;6.70;2.10;;;;;;;6.18;58.50;99529.10;231889;201;153121;-61
2024/01/27 04:36:44;;;;;;;5.80;1.70;;;;;;;6.25;58.12;99533.46;231871;198;137652;-61
2024/01/27 04:41:47;;;;;;;7.30;2.10;;;;;;;6.27;57.68;99537.24;232227;205;138047;-61
2024/01/27 04:46:50;;;;;;;8.00;2.00;;;;;;;6.28;57.36;99547.61;231846;197;153929;-61
2024/01/27 04:51:53;;;;;;;9.40;1.90;;;;;;;6.22;57.98;99546.77;231697;198;138483;-61
2024/01/27 04:56:57;;;;;;;4.50;1.70;;;;;;;6.20;59.39;99545.60;231848;205;138222;-61
2024/01/27 05:02:00;;;;;;;8.30;2.00;;;;;;;6.19;60.91;99547.94;231903;205;153087;-61
2024/01/27 05:07:04;;;;;;;6.90;1.80;;;;;;;6.12;61.85;99552.41;231784;198;138603;-61
2024/01/27 05:12:07;;;;;;;6.70;1.80;;;;;;;6.01;62.41;99561.42;232048;198;138262;-62
2024/01/27 05:17:11;;;;;;;7.90;1.70;;;;;;;5.92;63.40;99579.52;231765;202;153499;-61
2024/01/27 05:22:14;;;;;;;12.10;2.40;;;;;;;5.82;63.53;99593.40;231824;202;137489;-61
2024/01/27 05:27:17;;;;;;;8.20;2.10;;;;;;;5.79;63.99;99592.97;231722;205;138195;-60
2024/01/27 05:32:21;;;;;;;8.60;2.00;;;;;;;5.77;63.69;99593.23;231892;198;153346;-60
2024/01/27 05:37:24;;;;;;;10.90;2.40;;;;;;;5.78;63.38;99590.17;231719;198;137733;-61
2024/01/27 05:42:27;;;;;;;10.20;2.20;;;;;;;5.77;63.40;99591.10;232034;198;137129;-60
2024/01/27 05:47:30;;;;;;;7.80;1.90;;;;;;;5.76;63.31;99602.40;231875;197;153826;-61
2024/01/27 05:52:34;;;;;;;9.30;2.00;;;;;;;5.78;63.12;99599.48;231726;197;138638;-60
2024/01/27 05:57:38;;;;;;;10.00;2.40;;;;;;;5.79;62.92;99596.31;231890;198;137982;-59
2024/01/27 06:02:42;;;;;;;11.90;2.00;;;;;;;5.79;62.87;99602.98;231915;198;153383;-59
2024/01/27 06:07:46;;;;;;;13.80;2.30;;;;;;;5.75;62.69;99604.20;231882;197;137815;-59
2024/01/27 06:12:49;;;;;;;8.10;2.30;;;;;;;5.73;62.79;99604.80;231970;201;137845;-58
2024/01/27 06:17:52;;;;;;;8.30;2.40;;;;;;;5.65;62.95;99608.02;232037;205;153314;-59
2024/01/27 06:22:56;;;;;;;14.10;2.70;;;;;;;5.59;62.87;99612.98;231849;198;137659;-60
2024/01/27 06:27:59;;;;;;;9.10;2.20;;;;;;;5.66;62.58;99615.23;231884;197;138435;-61
2024/01/27 06:33:03;;;;;;;15.80;7.80;;;;;;;5.66;62.63;99619.81;231698;198;153147;-60
2024/01/27 06:38:06;;;;;;;30.00;18.10;;;;;;;5.67;62.40;99624.52;231834;199;153393;-60
2024/01/27 06:43:12;;;;;;;11.00;3.50;;;;;;;5.67;62.14;99623.46;231866;197;137584;-62
2024/01/27 06:48:16;;;;;;;41.50;28.00;;;;;;;5.64;61.23;99633.59;231956;198;153347;-62
2024/01/27 06:53:20;;;;;;;23.50;13.60;;;;;;;5.60;61.18;99631.78;231748;197;137306;-62
2024/01/27 06:58:23;;;;;;;12.60;2.80;;;;;;;5.60;60.64;99637.77;231734;198;137937;-62
2024/01/27 07:03:27;;;;;;;9.30;1.80;;;;;;;5.65;60.27;99642.35;231674;199;153662;-62
2024/01/27 07:08:32;;;;;;;7.00;1.90;;;;;;;5.69;59.95;99655.59;231722;203;138348;-62
2024/01/27 07:13:43;;;;;;;10.40;2.10;;;;;;;5.63;60.06;99663.53;231732;201;138156;-61
2024/01/27 07:18:46;;;;;;;;;;;;;;;5.58;60.52;99662.30;231738;198;153983;-61
2024/01/27 07:23:50;;;;;;;8.00;2.10;;;;;;;5.64;60.69;99669.52;231899;198;142275;-61
2024/01/27 07:28:53;;;;;;;9.70;2.70;;;;;;;5.65;60.72;99671.22;231706;205;137657;-61
2024/01/27 07:33:56;;;;;;;10.60;2.70;;;;;;;5.58;60.86;99667.76;231712;198;153817;-61
2024/01/27 07:39:00;;;;;;;13.10;2.60;;;;;;;5.58;60.72;99662.30;231657;203;138594;-60
2024/01/27 07:44:10;;;;;;;12.80;2.70;;;;;;;5.57;60.97;99658.30;231910;198;137974;-60
2024/01/27 07:49:14;;;;;;;10.60;2.20;;;;;;;5.54;60.63;99656.09;231757;199;153017;-59
2024/01/27 07:54:18;;;;;;;12.80;2.40;;;;;;;5.52;60.36;99652.46;231895;198;140541;-59
2024/01/27 07:59:21;;;;;;;14.60;4.40;;;;;;;5.55;59.89;99650.79;231741;199;137563;-59
2024/01/27 08:04:25;;;;;;;58.00;30.80;;;;;;;5.58;59.54;99639.96;231891;202;153056;-59
2024/01/27 08:09:28;;;;;;;12.10;3.10;;;;;;;5.59;58.88;99651.02;231730;198;138768;-59
2024/01/27 08:14:32;;;;;;;12.20;2.80;;;;;;;5.64;58.58;99651.56;231836;204;138103;-59
2024/01/27 08:19:37;;;;;;;12.70;2.60;;;;;;;5.63;58.30;99643.50;231780;198;153242;-59
2024/01/27 08:24:40;;;;;;;8.80;2.20;;;;;;;5.61;58.26;99644.41;231820;205;138164;-60
2024/01/27 08:29:43;;;;;;;9.80;2.20;;;;;;;5.58;57.98;99655.79;231897;198;137845;-59
2024/01/27 08:34:47;;;;;;;11.70;2.60;;;;;;;5.56;57.97;99657.44;231825;198;154381;-58
2024/01/27 08:39:51;;;;;;;11.60;2.70;;;;;;;5.54;57.82;99660.33;231804;198;138443;-59
2024/01/27 08:44:54;;;;;;;14.70;3.00;;;;;;;5.52;57.77;99665.34;231824;198;137620;-60
2024/01/27 08:49:58;;;;;;;8.50;2.50;;;;;;;5.52;57.91;99672.51;231835;201;235083;-60
2024/01/27 08:55:01;;;;;;;8.20;2.10;;;;;;;5.55;58.12;99675.43;231711;197;138165;-60
2024/01/27 09:00:05;;;;;;;8.40;2.60;;;;;;;5.52;58.00;99683.45;231996;204;138408;-60
2024/01/27 09:05:09;;;;;;;10.30;3.00;;;;;;;5.44;58.24;99682.61;231242;201;154349;-59
2024/01/27 09:10:15;;;;;;;12.80;3.00;;;;;;;5.43;58.88;99687.41;231804;197;138722;-60
2024/01/27 09:15:18;;;;;;;9.10;2.30;;;;;;;5.31;60.12;99687.25;231795;198;137547;-58
2024/01/27 09:20:22;;;;;;;105.60;67.40;;;;;;;5.26;61.01;99697.78;231974;202;154043;-60
2024/01/27 09:25:27;;;;;;;17.40;3.70;;;;;;;5.21;61.75;99701.61;231812;198;138276;-59
2024/01/27 09:30:31;;;;;;;17.00;3.30;;;;;;;5.17;62.50;99707.55;231940;197;137971;-58
2024/01/27 09:35:37;;;;;;;11.80;2.60;;;;;;;5.20;63.47;99710.80;231792;197;153139;-59
2024/01/27 09:40:41;;;;;;;9.30;2.40;;;;;;;5.08;64.52;99720.64;231876;198;138019;-59
2024/01/27 09:45:45;;;;;;;185.00;113.40;;;;;;;4.86;65.99;99728.30;231814;197;138203;-65
2024/01/27 09:50:50;;;;;;;9.70;3.20;;;;;;;4.82;67.15;99728.23;231777;201;153357;-59
2024/01/27 09:55:56;;;;;;;8.40;2.60;;;;;;;4.76;67.77;99720.65;231715;201;139305;-59
2024/01/27 10:01:00;;;;;;;8.90;2.50;;;;;;;4.79;68.17;99729.70;231623;202;138557;-60
2024/01/27 10:06:08;;;;;;;10.20;2.80;;;;;;;4.79;68.23;99733.95;231893;198;155331;-60
2024/01/27 10:11:14;;;;;;;9.10;2.50;;;;;;;4.69;68.71;99733.30;231686;198;138137;-60
2024/01/27 10:16:18;;;;;;;8.50;3.20;;;;;;;4.67;69.41;99736.71;231675;199;138157;-60
2024/01/27 10:21:23;;;;;;;11.20;4.60;;;;;;;4.75;71.24;99741.24;231866;203;152989;-61
2024/01/27 10:26:31;;;;;;;7.50;2.80;;;;;;;4.75;69.75;99734.05;231675;199;137625;-61
2024/01/27 10:31:35;;;;;;;7.50;2.80;;;;;;;4.76;69.63;99728.56;231727;205;137467;-61
2024/01/27 10:36:43;;;;;;;10.30;2.70;;;;;;;4.70;69.93;99726.78;231712;198;153754;-61
2024/01/27 10:41:47;;;;;;;9.20;2.60;;;;;;;4.64;70.13;99730.27;231725;203;139153;-60
2024/01/27 10:46:53;;;;;;;8.00;2.50;;;;;;;4.67;70.40;99729.88;231664;198;138961;-61
2024/01/27 10:51:59;;;;;;;7.40;2.60;;;;;;;4.60;70.64;99729.70;231657;198;153293;-61
2024/01/27 10:57:03;;;;;;;4.80;2.10;;;;;;;4.62;70.54;99734.94;231744;198;138760;-60
2024/01/27 11:02:13;;;;;;;7.30;2.60;;;;;;;4.60;70.70;99730.58;231765;202;137493;-60
2024/01/27 11:07:17;;;;;;;8.20;2.80;;;;;;;4.67;70.87;99731.79;231735;198;153449;-59
2024/01/27 11:12:23;;;;;;;7.60;2.40;;;;;;;4.71;70.55;99731.84;231877;203;138292;-59
2024/01/27 11:17:26;;;;;;;10.20;3.10;;;;;;;4.75;70.48;99726.50;231809;198;139171;-60
2024/01/27 11:22:31;;;;;;;7.30;3.00;;;;;;;4.81;70.39;99728.43;231777;198;155009;-59
2024/01/27 11:27:34;;;;;;;15.90;7.80;;;;;;;4.74;70.74;99737.06;231829;198;138512;-60
2024/01/27 11:32:38;;;;;;;9.70;3.70;;;;;;;4.73;71.00;99736.38;231774;201;138285;-60
2024/01/27 11:37:41;;;;;;;7.00;2.80;;;;;;;4.73;71.06;99745.51;231915;198;153269;-57
2024/01/27 11:42:57;;;;;;;8.70;2.90;;;;;;;4.70;71.29;99740.31;231852;198;137868;-60
2024/01/27 11:48:01;;;;;;;9.30;3.40;;;;;;;4.77;71.39;99739.27;232019;201;138346;-62
2024/01/27 11:53:09;;;;;;;9.70;3.70;;;;;;;4.82;71.47;99742.81;231649;204;154064;-61
2024/01/27 11:58:12;;;;;;;220.80;148.00;;;;;;;4.87;71.58;99754.45;231637;198;140575;-60
2024/01/27 12:03:16;;;;;;;11.80;4.20;;;;;;;4.92;71.51;99759.77;231779;197;140374;-60
2024/01/27 12:08:19;;;;;;;9.60;3.30;;;;;;;4.90;71.17;99759.11;231889;202;153450;-60
2024/01/27 12:13:23;;;;;;;9.20;3.20;;;;;;;4.89;71.47;99769.00;231802;205;138131;-60
2024/01/27 12:18:27;;;;;;;9.80;3.30;;;;;;;4.89;71.71;99771.62;231909;201;137209;-60
2024/01/27 12:23:31;;;;;;;9.40;2.90;;;;;;;4.86;71.97;99777.34;231812;198;153901;-61
2024/01/27 12:28:37;;;;;;;10.70;3.90;;;;;;;4.72;72.52;99777.54;231685;203;138349;-61
2024/01/27 12:33:48;;;;;;;10.40;3.20;;;;;;;4.71;72.67;99788.61;231666;198;138580;-62
2024/01/27 12:39:00;;;;;;;10.10;2.80;;;;;;;4.68;72.66;99793.45;231623;198;155230;-60
2024/01/27 12:44:06;;;;;;;11.20;4.10;;;;;;;4.64;73.02;99798.48;231739;197;138581;-61
2024/01/27 12:49:09;;;;;;;12.40;3.60;;;;;;;4.65;73.15;99804.09;231676;205;137825;-60
2024/01/27 12:54:13;;;;;;;8.90;4.10;;;;;;;4.63;73.34;99811.16;231965;198;154064;-60
2024/01/27 12:59:17;;;;;;;8.90;3.50;;;;;;;4.69;73.50;99820.48;231659;205;138005;-61
2024/01/27 13:04:20;;;;;;;8.10;3.30;;;;;;;4.68;73.24;99826.34;231766;201;137967;-60
2024/01/27 13:09:24;;;;;;;11.70;4.30;;;;;;;4.71;73.36;99829.77;231723;199;153451;-61
2024/01/27 13:14:27;;;;;;;14.70;4.10;;;;;;;4.79;73.16;99837.48;231742;198;138338;-60
2024/01/27 13:19:31;;;;;;;13.70;4.20;;;;;;;4.80;72.97;99840.96;231828;198;137725;-60
2024/01/27 13:24:35;;;;;;;10.30;4.00;;;;;;;4.82;73.11;99841.79;232067;197;152395;-60
2024/01/27 13:29:39;;;;;;;11.90;3.80;;;;;;;4.79;73.03;99849.42;231859;201;137130;-61
2024/01/27 13:34:42;;;;;;;12.50;4.80;;;;;;;4.76;73.55;99855.31;231766;198;137785;-61
2024/01/27 13:39:45;;;;;;;9.50;4.30;;;;;;;4.81;73.51;99858.52;231781;197;153446;-61
2024/01/27 13:44:49;;;;;;;9.70;4.00;;;;;;;4.81;73.46;99860.80;231838;198;139420;-61
2024/01/27 13:49:52;;;;;;;11.20;3.90;;;;;;;4.89;73.50;99871.31;231967;202;138462;-60
2024/01/27 13:54:55;;;;;;;10.80;3.60;;;;;;;5.03;73.18;99874.30;231684;205;153240;-60
2024/01/27 13:59:59;;;;;;;13.70;6.20;;;;;;;5.10;73.96;99879.23;231810;199;138202;-61
2024/01/27 14:05:03;;;;;;;9.90;3.70;;;;;;;5.13;73.21;99894.09;231678;205;138479;-60
2024/01/27 14:10:07;;;;;;;8.90;3.60;;;;;;;5.11;73.20;99896.08;231729;202;153135;-61
2024/01/27 14:15:11;;;;;;;6.90;3.20;;;;;;;5.16;72.88;99901.06;231865;202;137581;-60
2024/01/27 14:20:14;;;;;;;5.50;2.30;;;;;;;5.15;72.60;99919.19;230674;205;138737;-62
2024/01/27 14:25:19;;;;;;;8.80;3.30;;;;;;;5.19;72.74;99924.88;231923;198;153666;-61
2024/01/27 14:30:23;;;;;;;6.70;2.80;;;;;;;5.28;72.70;99932.77;232106;198;137559;-62
2024/01/27 14:35:26;;;;;;;7.40;3.30;;;;;;;5.25;72.09;99936.88;231941;199;137449;-61
2024/01/27 14:40:31;;;;;;;5.10;2.80;;;;;;;5.21;72.12;99942.98;231090;203;153044;-62
2024/01/27 14:45:35;;;;;;;7.00;3.00;;;;;;;5.11;72.11;99956.58;230833;200;138688;-62
2024/01/27 14:50:38;;;;;;;7.10;3.20;;;;;;;5.03;72.43;99962.58;231958;202;138182;-61
2024/01/27 14:55:41;;;;;;;6.60;3.40;;;;;;;5.04;72.56;99972.59;231979;198;154017;-62
2024/01/27 15:00:44;;;;;;;7.00;3.00;;;;;;;5.09;72.54;99977.74;232246;203;138303;-61
2024/01/27 15:05:48;;;;;;;7.10;3.10;;;;;;;5.12;72.56;99987.34;232081;201;138272;-61
2024/01/27 15:10:52;;;;;;;8.50;4.20;;;;;;;5.22;72.65;99991.85;231916;202;154111;-63
2024/01/27 15:15:55;;;;;;;6.40;3.70;;;;;;;5.22;72.53;100002.56;231867;198;138146;-61
2024/01/27 15:20:58;;;;;;;8.90;3.40;;;;;;;5.15;72.63;100009.61;230713;198;138788;-62
2024/01/27 15:26:05;;;;;;;7.20;3.50;;;;;;;5.16;72.67;100024.36;230949;198;153219;-63
2024/01/27 15:31:08;;;;;;;6.80;3.60;;;;;;;5.11;72.77;100025.19;231098;198;139413;-60
2024/01/27 15:36:11;;;;;;;5.70;3.10;;;;;;;5.05;73.02;100037.63;231101;198;139256;-61
2024/01/27 15:41:18;;;;;;;8.50;3.20;;;;;;;5.09;72.92;100046.17;231737;199;152000;-62
2024/01/27 15:46:21;;;;;;;7.30;3.80;;;;;;;5.10;72.91;100057.39;231821;203;138945;-61
2024/01/27 15:51:25;;;;;;;6.70;3.60;;;;;;;5.09;72.89;100065.50;230893;202;139312;-61
2024/01/27 15:56:28;;;;;;;6.20;3.50;;;;;;;5.11;72.98;100077.05;230076;203;154175;-63
2024/01/27 16:01:31;;;;;;;8.10;3.50;;;;;;;5.09;73.01;100083.44;230195;205;139059;-62
2024/01/27 16:06:35;;;;;;;6.60;3.30;;;;;;;5.10;72.98;100091.88;230807;205;140409;-62
2024/01/27 16:11:38;;;;;;;7.40;3.20;;;;;;;5.07;73.12;100101.42;230107;202;154006;-60
2024/01/27 16:16:43;;;;;;;6.10;3.10;;;;;;;5.01;73.25;100112.80;231567;205;137382;-62
2024/01/27 16:21:46;;;;;;;53.60;36.60;;;;;;;5.10;73.53;100118.78;231603;205;138846;-62
2024/01/27 16:26:50;;;;;;;8.70;4.90;;;;;;;5.23;73.78;100125.01;231726;205;152993;-62
2024/01/27 16:31:53;;;;;;;9.50;4.20;;;;;;;5.18;73.29;100131.07;231751;201;137976;-62
2024/01/27 16:36:56;;;;;;;9.90;4.80;;;;;;;5.15;73.38;100137.48;231790;205;138045;-62
2024/01/27 16:42:00;;;;;;;8.90;4.30;;;;;;;5.12;73.61;100140.36;231917;203;154809;-62
2024/01/27 16:47:03;;;;;;;7.60;4.20;;;;;;;5.12;73.73;100144.77;231778;202;137698;-62
2024/01/27 16:52:07;;;;;;;7.50;4.20;;;;;;;5.17;73.91;100154.84;231852;205;138440;-61
2024/01/27 16:57:10;;;;;;;9.60;4.30;;;;;;;5.19;73.96;100162.71;230318;204;153354;-61
2024/01/27 17:02:13;;;;;;;10.00;4.80;;;;;;;5.27;73.77;100177.84;232209;200;137308;-62
2024/01/27 17:07:16;;;;;;;9.20;4.80;;;;;;;5.34;73.76;100187.39;232287;196;137817;-62
2024/01/27 17:12:20;;;;;;;15.40;8.80;;;;;;;5.38;74.31;100197.68;232494;205;154612;-62
2024/01/27 17:17:23;;;;;;;7.90;4.70;;;;;;;5.38;73.56;100205.41;232051;196;139521;-61
2024/01/27 17:22:26;;;;;;;9.30;4.50;;;;;;;5.33;73.47;100212.74;232020;197;138127;-63
2024/01/27 17:27:30;;;;;;;6.80;4.10;;;;;;;5.27;73.50;100222.72;232076;200;153976;-62
2024/01/27 17:32:34;;;;;;;6.80;4.10;;;;;;;5.27;73.44;100230.81;232110;204;137386;-63
2024/01/27 17:37:37;;;;;;;7.70;4.30;;;;;;;5.31;73.35;100235.67;232162;200;138540;-60
2024/01/27 17:42:41;;;;;;;11.30;4.80;;;;;;;5.35;73.34;100246.83;232191;200;153273;-61
2024/01/27 17:47:48;;;;;;;9.40;4.90;;;;;;;5.35;73.40;100249.30;232197;200;137708;-61
2024/01/27 17:52:52;;;;;;;9.00;4.70;;;;;;;5.33;73.54;100257.08;231984;197;139273;-63
2024/01/27 17:57:55;;;;;;;9.10;4.60;;;;;;;5.34;73.56;100266.40;232001;197;154053;-63
2024/01/27 18:02:58;;;;;;;10.20;5.00;;;;;;;5.32;73.58;100269.06;231882;198;137731;-62
2024/01/27 18:08:03;;;;;;;8.40;4.60;;;;;;;5.33;73.89;100272.75;232043;197;138786;-62
2024/01/27 18:13:06;;;;;;;10.80;5.90;;;;;;;5.40;73.87;100276.83;231927;197;155006;-62
2024/01/27 18:18:09;;;;;;;10.40;5.10;;;;;;;5.48;73.67;100287.39;231822;204;142252;-63
2024/01/27 18:23:12;;;;;;;60.40;38.20;;;;;;;5.63;75.52;100292.16;231955;201;138282;-60
2024/01/27 18:28:16;;;;;;;14.40;6.60;;;;;;;5.87;73.79;100293.91;231859;197;153682;-64
2024/01/27 18:33:21;;;;;;;14.20;6.40;;;;;;;5.77;72.76;100300.13;231921;201;138012;-65
2024/01/27 18:38:25;;;;;;;;;;;;;;;5.71;72.75;100306.61;231948;201;138016;-64
2024/01/27 18:43:28;;;;;;;14.70;5.80;;;;;;;5.67;72.55;100308.45;232113;204;155233;-62
2024/01/27 18:48:31;;;;;;;13.10;6.30;;;;;;;5.66;72.52;100320.45;231929;202;138313;-64
2024/01/27 18:53:35;;;;;;;12.40;5.90;;;;;;;5.64;72.34;100329.64;231905;198;138648;-62
2024/01/27 18:58:38;;;;;;;14.90;5.80;;;;;;;5.68;72.03;100338.19;231926;202;153769;-62
2024/01/27 19:03:41;;;;;;;18.70;5.80;;;;;;;5.73;71.73;100339.14;231646;198;139376;-63
2024/01/27 19:08:45;;;;;;;16.60;6.20;;;;;;;5.77;71.49;100340.29;231969;198;142114;-61
2024/01/27 19:13:48;;;;;;;19.20;6.30;;;;;;;5.71;71.28;100342.52;231792;198;155976;-63
2024/01/27 19:18:51;;;;;;;28.30;11.60;;;;;;;5.74;71.10;100349.70;232017;198;139580;-59
2024/01/27 19:23:55;;;;;;;21.10;6.80;;;;;;;5.69;70.76;100360.90;232013;197;237159;-61
2024/01/27 19:28:58;;;;;;;14.30;6.20;;;;;;;5.61;70.73;100375.46;231826;202;152926;-61
2024/01/27 19:34:02;;;;;;;18.30;5.50;;;;;;;5.54;70.61;100383.36;231800;197;141547;-63
2024/01/27 19:39:05;;;;;;;299.40;166.70;;;;;;;5.56;71.18;100390.89;231716;204;138936;-61
2024/01/27 19:44:08;;;;;;;16.50;5.60;;;;;;;5.74;70.67;100399.34;231849;204;154519;-60
2024/01/27 19:49:12;;;;;;;18.50;6.50;;;;;;;5.78;69.80;100406.14;231827;198;138479;-60
2024/01/27 19:54:16;;;;;;;15.40;5.10;;;;;;;5.78;69.37;100416.35;231865;202;137963;-61
2024/01/27 19:59:20;;;;;;;18.50;5.60;;;;;;;5.75;69.22;100419.22;231944;204;153185;-60
2024/01/27 20:04:23;;;;;;;17.80;5.00;;;;;;;5.78;68.92;100430.95;231813;204;138310;-60
2024/01/27 20:09:27;;;;;;;16.10;4.50;;;;;;;5.76;68.69;100434.52;232059;204;138127;-60
2024/01/27 20:14:30;;;;;;;16.70;5.20;;;;;;;5.73;68.25;100441.80;231996;200;153127;-60
2024/01/27 20:19:33;;;;;;;48.10;30.10;;;;;;;5.63;68.19;100454.14;232006;204;138346;-58
2024/01/27 20:24:37;;;;;;;21.10;10.00;;;;;;;5.71;68.70;100461.20;232006;197;138557;-60
2024/01/27 20:29:41;;;;;;;13.00;4.40;;;;;;;5.80;68.04;100471.08;231711;203;153379;-61
2024/01/27 20:34:44;;;;;;;32.70;13.70;;;;;;;5.78;67.52;100480.27;231809;201;139101;-60
2024/01/27 20:39:48;;;;;;;14.00;4.40;;;;;;;5.88;67.34;100486.41;231986;201;138859;-61
2024/01/27 20:44:51;;;;;;;13.30;4.10;;;;;;;5.90;66.57;100491.65;231878;197;153976;-60
2024/01/27 20:49:54;;;;;;;17.20;4.30;;;;;;;5.83;66.51;100500.23;231928;201;138762;-59
2024/01/27 20:54:57;;;;;;;12.20;3.80;;;;;;;5.81;66.47;100508.55;231954;197;139664;-60
2024/01/27 21:00:01;;;;;;;15.90;4.20;;;;;;;5.74;66.18;100512.92;231947;200;153319;-62
2024/01/27 21:05:04;;;;;;;14.00;3.60;;;;;;;5.73;66.21;100517.51;231941;198;137894;-62
2024/01/27 21:10:07;;;;;;;14.30;4.30;;;;;;;5.72;66.07;100518.59;231827;204;138142;-61
2024/01/27 21:15:11;;;;;;;14.90;4.40;;;;;;;5.74;66.04;100530.55;231787;204;154482;-59
2024/01/27 21:20:14;;;;;;;16.00;4.20;;;;;;;5.73;65.89;100537.06;231764;198;136968;-60
2024/01/27 21:25:18;;;;;;;13.40;4.20;;;;;;;5.71;65.83;100545.38;232007;200;138146;-61
2024/01/27 21:30:21;;;;;;;15.70;4.40;;;;;;;5.67;65.61;100554.23;231956;197;153081;-59
2024/01/27 21:35:25;;;;;;;13.10;3.60;;;;;;;5.60;65.43;100561.58;231780;197;138998;-59
2024/01/27 21:40:28;;;;;;;14.10;3.80;;;;;;;5.55;65.28;100567.14;231957;198;138624;-59
2024/01/27 21:45:31;;;;;;;15.70;4.50;;;;;;;5.58;65.60;100576.59;231760;204;154222;-59
2024/01/27 21:50:35;;;;;;;16.80;4.60;;;;;;;5.64;65.40;100578.42;231793;197;142073;-58
2024/01/27 21:55:38;;;;;;;14.90;4.30;;;;;;;5.67;65.08;100586.10;231744;204;138530;-59
2024/01/27 22:00:41;;;;;;;14.20;4.20;;;;;;;5.71;64.92;100590.97;231953;204;152946;-58
2024/01/27 22:05:45;;;;;;;16.50;4.70;;;;;;;5.63;64.61;100592.16;231940;197;138410;-58
2024/01/27 22:10:49;;;;;;;14.40;4.30;;;;;;;5.58;64.50;100604.77;231781;204;142114;-58
2024/01/27 22:15:52;;;;;;;17.40;4.20;;;;;;;5.51;64.70;100612.63;231960;198;153657;-58
2024/01/27 22:20:58;;;;;;;15.10;4.30;;;;;;;5.46;64.58;100611.65;231786;201;138032;-58
2024/01/27 22:26:01;;;;;;;16.50;4.60;;;;;;;5.38;64.46;100616.86;231941;204;138118;-57
2024/01/27 22:31:05;;;;;;;15.20;4.50;;;;;;;5.30;64.65;100620.86;231949;204;153143;-56
2024/01/27 22:36:10;;;;;;;14.40;4.30;;;;;;;5.25;64.82;100631.31;232074;200;138147;-55
2024/01/27 22:41:13;;;;;;;15.60;4.20;;;;;;;5.21;65.06;100639.11;231887;204;138771;-57
2024/01/27 22:46:17;;;;;;;17.30;4.50;;;;;;;5.16;65.18;100647.62;231736;198;153122;-56
2024/01/27 22:51:20;;;;;;;14.90;4.80;;;;;;;5.12;65.39;100648.02;231954;197;138167;-58
2024/01/27 22:56:23;;;;;;;14.70;4.40;;;;;;;5.14;65.38;100650.64;231889;198;138142;-57
2024/01/27 23:01:26;;;;;;;17.70;5.30;;;;;;;5.14;65.37;100655.55;231740;204;153877;-56
2024/01/27 23:06:30;;;;;;;15.70;5.00;;;;;;;5.13;65.52;100657.35;232242;201;138047;-57
2024/01/27 23:11:36;;;;;;;17.50;4.90;;;;;;;5.13;65.68;100657.69;232112;202;138534;-57
2024/01/27 23:16:39;;;;;;;;;;;;;;;5.07;65.60;100662.17;232110;204;154252;-58
2024/01/27 23:21:42;;;;;;;18.70;4.50;;;;;;;5.01;65.68;100664.20;232244;197;137397;-57
2024/01/27 23:26:46;;;;;;;12.10;4.40;;;;;;;4.98;65.93;100669.16;232164;198;139280;-56
2024/01/27 23:31:49;;;;;;;18.30;5.90;;;;;;;4.91;66.00;100675.92;230689;204;154453;-56
2024/01/27 23:36:52;;;;;;;19.10;5.50;;;;;;;4.90;66.23;100679.10;230054;204;138802;-57